createdAt,value
2022-11-03T00:01:04.851Z,68.12
2022-11-03T00:03:31.547Z,68.33
2022-11-03T00:06:07.504Z,68.44
2022-11-03T00:08:37.058Z,68.60
2022-11-03T00:11:05.581Z,68.56
2022-11-03T00:13:32.357Z,68.53
2022-11-03T00:15:59.135Z,68.57
2022-11-03T00:18:25.841Z,68.73
2022-11-03T00:21:03.705Z,68.59
2022-11-03T00:23:32.998Z,69.01
2022-11-03T00:26:14.320Z,68.79
2022-11-03T00:28:42.463Z,68.82
2022-11-03T00:31:34.115Z,69.11
2022-11-03T00:34:01.818Z,69.35
2022-11-03T00:36:30.933Z,69.08
2022-11-03T00:38:57.944Z,69.27
2022-11-03T00:41:25.837Z,69.39
2022-11-03T00:43:52.979Z,69.52
2022-11-03T00:46:20.663Z,69.33
2022-11-03T00:48:47.732Z,69.72
2022-11-03T00:51:18.839Z,69.84
2022-11-03T00:53:56.692Z,70.06
2022-11-03T00:56:26.018Z,70.11
2022-11-03T00:58:53.747Z,70.50
2022-11-03T01:01:25.634Z,70.74
2022-11-03T01:04:13.019Z,70.90
2022-11-03T01:06:51.540Z,71.10
2022-11-03T01:09:20.516Z,70.93
2022-11-03T01:12:00.899Z,70.83
2022-11-03T01:14:38.468Z,71.33
2022-11-03T01:17:13.612Z,71.31
2022-11-03T01:19:40.319Z,71.48
2022-11-03T01:22:10.633Z,71.56
2022-11-03T01:24:38.124Z,71.70
2022-11-03T01:27:04.782Z,71.95
2022-11-03T01:29:31.490Z,71.76
2022-11-03T01:31:58.385Z,72.12
2022-11-03T01:34:25.148Z,71.95
2022-11-03T01:36:51.812Z,71.88
2022-11-03T01:39:19.470Z,71.92
2022-11-03T01:41:48.313Z,72.14
2022-11-03T01:44:14.955Z,72.22
2022-11-03T01:47:03.366Z,71.95
2022-11-03T01:49:35.275Z,72.18
2022-11-03T01:52:08.102Z,72.08
2022-11-03T01:54:37.991Z,72.21
2022-11-03T01:57:08.673Z,72.09
2022-11-03T01:59:36.163Z,72.23
2022-11-03T02:02:03.286Z,72.52
2022-11-03T02:04:32.430Z,72.48
2022-11-03T02:07:15.883Z,72.51
2022-11-03T02:09:42.579Z,72.78
2022-11-03T02:12:10.264Z,73.06
2022-11-03T02:14:45.829Z,72.92
2022-11-03T02:17:14.171Z,72.97
2022-11-03T02:20:00.091Z,72.97
2022-11-03T02:23:04.784Z,73.35
2022-11-03T02:25:31.609Z,73.42
2022-11-03T02:27:59.076Z,73.14
2022-11-03T02:30:28.163Z,73.40
2022-11-03T02:32:59.355Z,73.48
2022-11-03T02:35:57.039Z,73.57
2022-11-03T02:38:26.134Z,73.71
2022-11-03T02:40:54.805Z,73.35
2022-11-03T02:43:22.566Z,73.57
2022-11-03T02:45:50.471Z,73.64
2022-11-03T02:48:18.435Z,73.95
2022-11-03T02:50:45.313Z,73.49
2022-11-03T02:53:13.522Z,73.41
2022-11-03T02:56:11.712Z,73.41
2022-11-03T02:58:53.262Z,73.38
2022-11-03T03:01:47.476Z,73.60
2022-11-03T03:04:37.693Z,73.79
2022-11-03T03:07:11.238Z,73.35
2022-11-03T03:09:42.133Z,73.55
2022-11-03T03:12:10.698Z,73.48
2022-11-03T03:14:39.138Z,73.78
2022-11-03T03:17:17.427Z,73.55
2022-11-03T03:20:00.194Z,73.61
2022-11-03T03:22:39.557Z,73.83
2022-11-03T03:25:22.435Z,73.47
2022-11-03T03:27:53.453Z,73.50
2022-11-03T03:30:20.317Z,73.93
2022-11-03T03:32:49.151Z,73.90
2022-11-03T03:35:25.465Z,73.76
2022-11-03T03:37:58.592Z,73.65
2022-11-03T03:40:32.640Z,73.71
2022-11-03T03:43:00.588Z,73.45
2022-11-03T03:45:27.483Z,73.69
2022-11-03T03:47:57.812Z,73.59
2022-11-03T03:50:26.538Z,73.94
2022-11-03T03:53:04.534Z,73.58
2022-11-03T03:55:36.872Z,73.71
2022-11-03T03:58:05.111Z,73.84
2022-11-03T04:00:32.493Z,73.74
2022-11-03T04:02:59.715Z,74.11
2022-11-03T04:05:26.944Z,73.97
2022-11-03T04:07:53.609Z,73.75
2022-11-03T04:10:22.035Z,74.21
2022-11-03T04:13:08.706Z,73.83
2022-11-03T04:16:02.013Z,74.05
2022-11-03T04:18:47.387Z,74.32
2022-11-03T04:21:35.284Z,74.24
2022-11-03T04:24:01.951Z,74.21
2022-11-03T04:26:29.394Z,74.38
2022-11-03T04:28:56.405Z,74.60
2022-11-03T04:31:23.051Z,74.37
2022-11-03T04:33:49.704Z,74.56
2022-11-03T04:36:24.131Z,74.63
2022-11-03T04:38:52.058Z,74.84
2022-11-03T04:41:22.211Z,74.66
2022-11-03T04:43:49.828Z,74.54
2022-11-03T04:46:18.015Z,74.78
2022-11-03T04:48:44.958Z,74.58
2022-11-03T04:51:17.421Z,74.67
2022-11-03T04:53:53.968Z,74.64
2022-11-03T04:56:22.789Z,74.98
2022-11-03T04:58:49.847Z,74.82
2022-11-03T05:01:23.786Z,74.89
2022-11-03T05:03:54.008Z,74.77
2022-11-03T05:06:26.946Z,75.04
2022-11-03T05:08:59.110Z,75.18
2022-11-03T05:11:35.810Z,74.97
2022-11-03T05:14:06.795Z,75.23
2022-11-03T05:16:35.053Z,75.38
2022-11-03T05:19:02.153Z,75.20
2022-11-03T05:21:29.066Z,75.15
2022-11-03T05:23:58.581Z,75.30
2022-11-03T05:26:31.890Z,75.33
2022-11-03T05:29:01.899Z,75.63
2022-11-03T05:31:46.451Z,75.65
2022-11-03T05:34:52.379Z,75.77
2022-11-03T05:37:32.144Z,75.86
2022-11-03T05:40:01.066Z,75.90
2022-11-03T05:42:42.090Z,75.73
2022-11-03T05:45:26.449Z,75.78
2022-11-03T05:48:01.643Z,75.93
2022-11-03T05:50:31.791Z,76.00
2022-11-03T05:53:21.115Z,76.00
2022-11-03T05:55:49.063Z,75.88
2022-11-03T05:58:32.357Z,75.88
2022-11-03T06:01:02.289Z,76.05
2022-11-03T06:03:33.889Z,76.34
2022-11-03T06:06:04.207Z,76.41
2022-11-03T06:08:39.075Z,76.18
2022-11-03T06:11:10.440Z,76.16
2022-11-03T06:13:38.857Z,76.22
2022-11-03T06:16:31.817Z,75.98
2022-11-03T06:19:01.351Z,76.20
2022-11-03T06:21:29.775Z,76.07
2022-11-03T06:23:56.889Z,76.43
2022-11-03T06:26:28.654Z,76.28
2022-11-03T06:28:56.208Z,76.42
2022-11-03T06:31:31.384Z,76.24
2022-11-03T06:33:58.917Z,76.33
2022-11-03T06:36:38.485Z,76.26
2022-11-03T06:50:44.938Z,76.19
2022-11-03T06:53:12.135Z,76.46
2022-11-03T06:55:40.386Z,76.63
2022-11-03T06:58:38.204Z,76.77
2022-11-03T07:01:25.207Z,76.74
2022-11-03T07:03:56.383Z,76.76
2022-11-03T07:06:25.309Z,76.76
2022-11-03T07:08:54.833Z,76.52
2022-11-03T07:11:26.573Z,76.62
2022-11-03T07:14:33.333Z,76.62
2022-11-03T07:17:02.971Z,77.06
2022-11-03T07:19:35.334Z,76.89
2022-11-03T07:22:08.846Z,77.11
2022-11-03T07:24:47.075Z,76.65
2022-11-03T07:27:22.085Z,77.13
2022-11-03T07:29:49.931Z,77.11
2022-11-03T07:32:19.840Z,76.85
2022-11-03T07:34:48.155Z,76.74
2022-11-03T07:37:18.793Z,77.05
2022-11-03T07:39:45.426Z,77.01
2022-11-03T07:42:21.386Z,76.86
2022-11-03T07:44:50.157Z,76.88
2022-11-03T07:47:27.598Z,76.79
2022-11-03T07:49:55.299Z,76.96
2022-11-03T07:52:24.439Z,76.89
2022-11-03T07:54:52.362Z,77.07
2022-11-03T07:57:22.722Z,77.13
2022-11-03T07:59:51.046Z,77.36
2022-11-03T08:02:45.178Z,76.84
2022-11-03T08:05:12.009Z,77.23
2022-11-03T08:07:39.202Z,77.20
2022-11-03T08:14:04.352Z,77.30
2022-11-03T08:16:31.124Z,76.91
2022-11-03T08:18:57.837Z,77.12
2022-11-03T08:21:24.553Z,77.21
2022-11-03T08:23:51.786Z,76.98
2022-11-03T08:26:18.423Z,76.87
2022-11-03T08:33:03.062Z,77.30
2022-11-03T08:35:33.082Z,77.37
2022-11-03T08:38:01.134Z,77.54
2022-11-03T08:40:27.806Z,77.13
2022-11-03T08:43:23.818Z,77.08
2022-11-03T08:45:54.730Z,77.13
2022-11-03T08:48:27.334Z,77.19
2022-11-03T08:50:55.063Z,77.13
2022-11-03T08:53:26.101Z,76.63
2022-11-03T08:59:30.741Z,76.80
2022-11-03T09:01:57.881Z,76.55
2022-11-03T09:04:24.628Z,76.64
2022-11-03T09:06:51.396Z,76.30
2022-11-03T09:12:05.284Z,76.58
2022-11-03T09:14:31.938Z,76.11
2022-11-03T09:16:58.712Z,75.83
2022-11-03T09:19:25.586Z,75.94
2022-11-03T09:21:52.672Z,75.93
2022-11-03T09:24:19.426Z,75.79
2022-11-03T09:26:46.261Z,75.69
2022-11-03T09:29:13.094Z,75.75
2022-11-03T09:31:39.994Z,75.35
2022-11-03T09:34:06.715Z,75.69
2022-11-03T09:36:33.648Z,75.74
2022-11-03T09:39:00.501Z,75.59
2022-11-03T09:41:45.855Z,75.27
2022-11-03T09:44:14.090Z,75.17
2022-11-03T09:46:41.354Z,75.13
2022-11-03T09:49:08.012Z,75.13
2022-11-03T09:51:35.517Z,74.79
2022-11-03T09:54:04.004Z,74.71
2022-11-03T09:56:31.554Z,74.23
2022-11-03T09:59:01.384Z,74.13
2022-11-03T10:01:28.213Z,73.95
2022-11-03T10:03:59.996Z,73.53
2022-11-03T10:06:26.881Z,73.63
2022-11-03T10:08:53.847Z,73.64
2022-11-03T10:11:20.666Z,73.08
2022-11-03T10:14:28.331Z,72.89
2022-11-03T10:17:00.809Z,72.56
2022-11-03T10:19:27.697Z,72.58
2022-11-03T10:22:00.025Z,72.16
2022-11-03T10:24:26.774Z,71.83
2022-11-03T10:26:56.901Z,71.22
2022-11-03T10:29:28.666Z,71.48
2022-11-03T10:32:30.720Z,70.50
2022-11-03T10:34:58.152Z,70.48
2022-11-03T10:37:26.005Z,69.99
2022-11-03T10:39:54.774Z,69.47
2022-11-03T10:42:30.657Z,69.12
2022-11-03T10:45:17.616Z,69.14
2022-11-03T10:47:44.773Z,68.98
2022-11-03T10:50:21.955Z,68.83
2022-11-03T10:52:49.835Z,68.64
2022-11-03T10:55:20.589Z,68.38
2022-11-03T10:59:07.784Z,68.44
2022-11-03T11:02:43.008Z,67.97
2022-11-03T11:06:06.368Z,67.71
2022-11-03T11:13:21.762Z,67.08
2022-11-03T11:15:56.440Z,67.01
2022-11-03T11:18:29.457Z,67.15
2022-11-03T11:21:00.671Z,66.86
2022-11-03T11:23:27.520Z,67.16
2022-11-03T11:26:09.528Z,67.06
2022-11-03T11:28:37.827Z,66.77
2022-11-03T11:31:22.640Z,67.03
2022-11-03T11:33:52.632Z,67.12
2022-11-03T11:36:24.609Z,67.26
2022-11-03T11:38:55.849Z,66.85
2022-11-03T11:42:01.328Z,67.11
2022-11-03T11:44:58.261Z,67.05
2022-11-03T11:47:45.783Z,67.03
2022-11-03T11:50:53.802Z,66.84
2022-11-03T11:54:10.000Z,66.62
2022-11-03T11:56:47.283Z,66.84
2022-11-03T11:59:39.232Z,66.79
2022-11-03T12:02:59.092Z,66.64
2022-11-03T12:05:31.870Z,66.86
2022-11-03T12:08:02.001Z,66.99
2022-11-03T12:10:32.047Z,67.31
2022-11-03T12:13:00.151Z,67.02
2022-11-03T12:15:52.627Z,67.04
2022-11-03T12:18:29.223Z,67.08
2022-11-03T12:20:55.950Z,67.18
2022-11-03T12:23:41.420Z,67.28
2022-11-03T12:26:27.605Z,67.08
2022-11-03T12:28:59.222Z,67.37
2022-11-03T12:31:33.064Z,67.42
2022-11-03T12:34:02.838Z,67.49
2022-11-03T12:36:30.270Z,67.49
2022-11-03T12:39:02.790Z,67.50
2022-11-03T12:41:30.341Z,67.71
2022-11-03T12:43:58.800Z,68.06
2022-11-03T12:46:31.053Z,68.25
2022-11-03T12:48:57.916Z,68.05
2022-11-03T12:51:25.189Z,68.02
2022-11-03T12:53:52.336Z,68.38
2022-11-03T12:56:19.432Z,68.28
2022-11-03T12:58:46.609Z,68.48
2022-11-03T13:01:18.931Z,68.56
2022-11-03T13:03:48.496Z,68.77
2022-11-03T13:06:15.594Z,68.75
2022-11-03T13:08:42.696Z,68.28
2022-11-03T13:11:29.371Z,68.14
2022-11-03T13:13:56.951Z,68.02
2022-11-03T13:16:23.894Z,68.20
2022-11-03T13:18:50.686Z,67.98
2022-11-03T13:21:17.988Z,67.78
2022-11-03T13:24:05.541Z,67.82
2022-11-03T13:26:32.243Z,67.76
2022-11-03T13:29:08.195Z,67.42
2022-11-03T13:31:47.131Z,67.49
2022-11-03T13:34:25.408Z,67.43
2022-11-03T13:36:54.718Z,67.55
2022-11-03T13:39:21.610Z,67.47
2022-11-03T13:41:51.348Z,67.59
2022-11-03T13:44:21.389Z,67.38
2022-11-03T13:46:48.325Z,67.29
2022-11-03T13:52:09.425Z,67.24
2022-11-03T14:05:14.198Z,67.42
2022-11-03T14:07:40.777Z,67.48
2022-11-03T14:10:07.874Z,67.48
2022-11-03T14:12:36.140Z,67.65
2022-11-03T14:15:05.918Z,67.37
2022-11-03T14:17:33.343Z,67.76
2022-11-03T14:31:41.882Z,68.23
2022-11-03T14:34:08.675Z,68.22
2022-11-03T14:36:35.461Z,68.18
2022-11-03T14:39:02.225Z,68.47
2022-11-03T14:41:47.724Z,68.51
2022-11-03T14:44:14.469Z,68.98
2022-11-03T14:46:41.084Z,68.76
2022-11-03T14:49:09.159Z,69.30
2022-11-03T14:51:35.840Z,69.01
2022-11-03T14:54:02.555Z,69.33
2022-11-03T14:56:29.341Z,69.14
2022-11-03T14:58:56.223Z,69.17
2022-11-03T15:01:23.259Z,69.52
2022-11-03T15:03:49.990Z,69.79
2022-11-03T15:06:16.718Z,69.76
2022-11-03T15:08:43.468Z,69.62
2022-11-03T15:11:10.705Z,69.94
2022-11-03T15:13:41.733Z,69.90
2022-11-03T15:16:12.752Z,70.12
2022-11-03T15:18:39.715Z,70.25
2022-11-03T15:21:06.602Z,70.57
2022-11-03T15:26:20.059Z,70.63
2022-11-03T15:28:49.308Z,70.46
2022-11-03T15:31:16.082Z,70.75
2022-11-03T15:33:42.745Z,70.67
2022-11-03T15:36:09.640Z,71.00
2022-11-03T15:38:36.429Z,71.15
2022-11-03T15:41:19.500Z,71.02
2022-11-03T15:43:48.251Z,71.02
2022-11-03T15:46:18.853Z,71.20
2022-11-03T15:48:46.079Z,71.55
2022-11-03T15:51:12.888Z,71.35
2022-11-03T15:53:40.078Z,71.68
2022-11-03T15:56:07.518Z,71.55
2022-11-03T15:58:34.773Z,71.88
2022-11-03T16:01:05.299Z,71.96
2022-11-03T16:03:32.641Z,71.94
2022-11-03T16:05:59.699Z,72.01
2022-11-03T16:08:28.903Z,72.21
2022-11-03T16:10:58.244Z,72.33
2022-11-03T16:13:25.442Z,72.09
2022-11-03T16:15:54.544Z,72.33
2022-11-03T16:18:21.499Z,72.08
2022-11-03T16:20:48.189Z,72.20
2022-11-03T16:23:14.954Z,72.39
2022-11-03T16:25:41.683Z,72.27
2022-11-03T16:28:08.834Z,72.20
2022-11-03T16:30:35.792Z,72.20
2022-11-03T16:33:02.562Z,72.23
2022-11-03T16:35:29.785Z,72.46
2022-11-03T16:37:56.554Z,72.19
2022-11-03T16:40:23.834Z,72.29
2022-11-03T16:42:50.575Z,72.34
2022-11-03T16:45:22.293Z,72.21
2022-11-03T16:47:50.284Z,71.96
2022-11-03T16:50:18.156Z,72.22
2022-11-03T16:52:46.430Z,72.25
2022-11-03T16:55:15.128Z,72.07
2022-11-03T16:57:45.867Z,71.88
2022-11-03T17:00:16.155Z,72.29
2022-11-03T17:02:43.112Z,73.02
2022-11-03T17:05:10.987Z,73.42
2022-11-03T17:07:37.875Z,73.26
2022-11-03T17:10:05.849Z,72.89
2022-11-03T17:12:32.579Z,72.62
2022-11-03T17:14:59.247Z,71.91
2022-11-03T17:17:25.859Z,71.52
2022-11-03T17:19:52.478Z,71.35
2022-11-03T17:22:21.427Z,71.08
2022-11-03T17:24:48.513Z,70.81
2022-11-03T17:27:17.448Z,70.39
2022-11-03T17:29:48.383Z,70.07
2022-11-03T17:32:21.094Z,69.88
2022-11-03T17:34:48.917Z,69.72
2022-11-03T17:37:17.184Z,70.05
2022-11-03T17:39:46.504Z,69.83
2022-11-03T17:42:21.607Z,69.76
2022-11-03T17:51:59.531Z,69.61
2022-11-03T17:54:31.471Z,69.92
2022-11-03T17:57:08.916Z,69.58
2022-11-03T17:59:48.717Z,69.75
2022-11-03T18:02:31.744Z,69.79
2022-11-03T18:05:21.948Z,70.01
2022-11-03T18:08:33.766Z,69.72
2022-11-03T18:11:58.434Z,69.64
2022-11-03T18:14:28.254Z,69.76
2022-11-03T18:20:15.517Z,69.58
2022-11-03T18:23:03.341Z,69.36
2022-11-03T18:36:59.865Z,69.56
2022-11-03T18:40:02.210Z,69.52
2022-11-03T18:42:29.109Z,69.44
2022-11-03T18:45:01.454Z,69.40
2022-11-03T18:47:29.411Z,69.81
2022-11-03T18:49:56.038Z,69.95
2022-11-03T18:52:22.735Z,69.95
2022-11-03T18:54:53.879Z,69.88
2022-11-03T18:57:26.498Z,70.12
2022-11-03T18:59:53.120Z,70.21
2022-11-03T19:02:25.466Z,70.29
2022-11-03T19:04:52.230Z,70.39
2022-11-03T19:07:26.264Z,70.38
2022-11-03T19:09:53.114Z,70.35
2022-11-03T19:12:19.892Z,70.56
2022-11-03T19:14:48.061Z,70.36
2022-11-03T19:17:24.428Z,70.75
2022-11-03T19:19:54.592Z,70.84
2022-11-03T19:22:22.336Z,70.62
2022-11-03T19:24:49.151Z,70.69
2022-11-03T19:27:23.028Z,70.55
2022-11-03T19:29:49.702Z,70.68
2022-11-03T19:32:20.956Z,70.92
2022-11-03T19:34:52.470Z,70.89
2022-11-03T19:37:19.157Z,70.47
2022-11-03T19:39:45.786Z,70.83
2022-11-03T19:42:29.772Z,70.65
2022-11-03T19:45:07.725Z,70.86
2022-11-03T19:47:47.781Z,70.92
2022-11-03T19:50:22.005Z,70.81
2022-11-03T19:52:50.152Z,71.31
2022-11-03T19:55:18.081Z,71.14
2022-11-03T19:57:44.985Z,70.95
2022-11-03T20:00:17.581Z,70.93
2022-11-03T20:02:44.933Z,71.11
2022-11-03T20:06:41.880Z,70.91
2022-11-03T20:24:21.562Z,71.80
2022-11-03T20:27:00.222Z,71.79
2022-11-03T20:32:43.259Z,71.94
2022-11-03T20:35:45.805Z,71.72
2022-11-03T20:54:27.956Z,72.17
2022-11-03T21:38:36.947Z,73.79
2022-11-03T21:44:27.844Z,74.06
2022-11-03T21:55:37.477Z,74.47
2022-11-03T23:09:59.140Z,76.08
2022-11-03T23:21:13.843Z,76.35
2022-11-03T23:41:02.213Z,76.73
2022-11-03T23:48:09.697Z,76.94
